Bureau, Illinois
Current Conditions -  °F | °C
As of 4:55 AM on Saturday 25 Oct 2014 (Local Time) from KVYS Reporting Station
Moderate Fog Moderate Fog  
Wind Chill: 56°   Ceiling: 200
Heat Index: 56°   Visibility: 0.5mi
Dew Point: 55°   Wind: 9mph
Humidity: 95%   Direction: 310°NW
Pressure: 29.94"   Gusts: NA
Location:  41.29°N, 89.37°W
Report Text: KVYS 250955Z AUTO 31008KT 1/2SM FG OVC002 14/13 A2994 RMK AO2 T01350127
Loading
Personal Weather Stations






























Interactive Weather Map New forecast layout! Learn more

10-Day Weather Forecast

Advertisements
Track Severe Weather on mobile